createdAt,value
2023-06-29T00:00:07.481Z,22.99
2023-06-29T00:02:56.228Z,22.93
2023-06-29T00:05:24.453Z,22.93
2023-06-29T00:07:52.635Z,22.91
2023-06-29T00:10:20.686Z,22.92
2023-06-29T00:12:49.086Z,22.94
2023-06-29T00:15:17.051Z,22.95
2023-06-29T00:17:48.944Z,22.92
2023-06-29T00:20:17.378Z,22.85
2023-06-29T00:22:49.414Z,22.79
2023-06-29T00:25:18.774Z,22.82
2023-06-29T00:27:48.232Z,22.74
2023-06-29T00:30:17.163Z,22.77
2023-06-29T00:32:45.651Z,22.77
2023-06-29T00:35:14.943Z,22.77
2023-06-29T00:37:45.895Z,22.81
2023-06-29T00:40:14.462Z,22.84
2023-06-29T00:42:43.941Z,22.75
2023-06-29T00:45:12.305Z,22.78
2023-06-29T00:47:43.568Z,22.76
2023-06-29T00:50:15.597Z,22.73
2023-06-29T00:52:47.470Z,22.71
2023-06-29T00:55:16.691Z,22.75
2023-06-29T01:00:35.513Z,22.75
2023-06-29T01:03:10.918Z,22.74
2023-06-29T01:05:43.525Z,22.73
2023-06-29T01:08:23.900Z,22.65
2023-06-29T01:10:52.569Z,22.60
2023-06-29T01:13:22.771Z,22.59
2023-06-29T01:15:53.594Z,22.63
2023-06-29T01:18:25.420Z,22.66
2023-06-29T01:20:54.905Z,22.63
2023-06-29T01:23:35.985Z,22.60
2023-06-29T01:26:07.193Z,22.60
2023-06-29T01:28:39.784Z,22.63
2023-06-29T01:31:13.101Z,22.61
2023-06-29T01:33:42.222Z,22.60
2023-06-29T01:36:39.442Z,22.64
2023-06-29T01:39:13.955Z,22.60
2023-06-29T01:41:44.202Z,22.61
2023-06-29T01:44:18.877Z,22.55
2023-06-29T01:46:49.253Z,22.60
2023-06-29T01:49:17.612Z,22.60
2023-06-29T01:51:48.806Z,22.59
2023-06-29T01:54:17.250Z,22.63
2023-06-29T01:56:45.105Z,22.58
2023-06-29T01:59:13.873Z,22.54
2023-06-29T02:01:41.978Z,22.57
2023-06-29T02:04:10.520Z,22.56
2023-06-29T02:06:38.447Z,22.61
2023-06-29T02:09:07.323Z,22.64
2023-06-29T02:11:39.708Z,22.62
2023-06-29T02:14:08.272Z,22.60
2023-06-29T02:16:36.469Z,22.62
2023-06-29T02:19:05.019Z,22.63
2023-06-29T02:21:34.801Z,22.62
2023-06-29T02:24:05.466Z,22.65
2023-06-29T02:26:33.583Z,22.70
2023-06-29T02:29:01.962Z,22.67
2023-06-29T02:31:29.929Z,22.64
2023-06-29T02:34:00.744Z,22.71
2023-06-29T02:36:29.569Z,22.73
2023-06-29T02:38:58.202Z,22.74
2023-06-29T02:41:26.572Z,22.78
2023-06-29T02:43:55.061Z,22.81
2023-06-29T02:46:23.309Z,22.80
2023-06-29T02:48:52.245Z,22.84
2023-06-29T02:51:20.612Z,22.87
2023-06-29T02:53:49.052Z,22.93
2023-06-29T02:56:17.266Z,22.96
2023-06-29T02:58:45.595Z,23.05
2023-06-29T03:01:21.181Z,23.06
2023-06-29T03:03:49.850Z,23.13
2023-06-29T03:06:21.672Z,23.15
2023-06-29T03:08:50.005Z,23.20
2023-06-29T03:11:18.338Z,23.19
2023-06-29T03:13:47.959Z,23.20
2023-06-29T03:16:16.321Z,23.21
2023-06-29T03:18:44.745Z,23.19
2023-06-29T03:21:18.936Z,23.16
2023-06-29T03:23:48.277Z,23.20
2023-06-29T03:26:16.220Z,23.30
2023-06-29T03:28:45.768Z,23.30
2023-06-29T03:31:13.868Z,23.38
2023-06-29T03:33:43.276Z,23.46
2023-06-29T03:36:12.914Z,23.42
2023-06-29T03:38:42.440Z,23.42
2023-06-29T03:41:10.484Z,23.48
2023-06-29T03:43:39.016Z,23.48
2023-06-29T03:46:06.992Z,23.44
2023-06-29T03:48:35.473Z,23.48
2023-06-29T03:51:04.967Z,23.49
2023-06-29T03:53:33.376Z,23.54
2023-06-29T03:56:01.372Z,23.53
2023-06-29T03:58:29.709Z,23.58
2023-06-29T04:00:57.961Z,23.64
2023-06-29T04:03:26.476Z,23.76
2023-06-29T04:05:54.836Z,23.83
2023-06-29T04:08:23.248Z,23.92
2023-06-29T04:10:52.232Z,23.94
2023-06-29T04:13:20.827Z,24.03
2023-06-29T04:15:48.860Z,24.03
2023-06-29T04:18:17.111Z,24.06
2023-06-29T04:20:45.740Z,24.06
2023-06-29T04:23:16.440Z,24.20
2023-06-29T04:25:45.638Z,24.20
2023-06-29T04:28:14.242Z,24.26
2023-06-29T04:30:43.017Z,24.43
2023-06-29T04:33:12.113Z,24.48
2023-06-29T04:35:46.078Z,24.65
2023-06-29T04:38:15.047Z,24.83
2023-06-29T04:40:43.914Z,25.10
2023-06-29T04:43:14.118Z,25.25
2023-06-29T04:45:42.667Z,25.42
2023-06-29T04:48:11.895Z,25.56
2023-06-29T04:50:39.772Z,25.53
2023-06-29T04:53:11.440Z,25.63
2023-06-29T04:55:39.868Z,25.59
2023-06-29T04:58:08.517Z,25.82
2023-06-29T05:00:36.805Z,25.80
2023-06-29T05:03:05.277Z,25.67
2023-06-29T05:05:33.392Z,25.74
2023-06-29T05:08:01.720Z,25.76
2023-06-29T05:10:30.055Z,25.63
2023-06-29T05:12:58.293Z,25.62
2023-06-29T05:15:26.426Z,25.70
2023-06-29T05:17:54.937Z,25.68
2023-06-29T05:20:23.882Z,25.76
2023-06-29T05:22:54.992Z,25.78
2023-06-29T05:25:24.391Z,25.76
2023-06-29T05:27:52.845Z,25.82
2023-06-29T05:30:20.932Z,25.88
2023-06-29T05:32:49.485Z,26.00
2023-06-29T05:35:17.414Z,26.05
2023-06-29T05:37:47.815Z,26.18
2023-06-29T05:40:16.742Z,26.29
2023-06-29T05:42:45.531Z,26.22
2023-06-29T05:45:14.302Z,26.21
2023-06-29T05:47:42.897Z,26.37
2023-06-29T05:50:11.217Z,26.55
2023-06-29T05:52:39.848Z,26.52
2023-06-29T05:55:08.041Z,26.45
2023-06-29T05:57:36.026Z,26.43
2023-06-29T06:00:09.632Z,26.45
2023-06-29T06:02:38.403Z,26.44
2023-06-29T06:05:11.220Z,26.47
2023-06-29T06:07:39.704Z,26.62
2023-06-29T06:10:08.524Z,26.65
2023-06-29T06:12:36.556Z,26.65
2023-06-29T06:15:07.372Z,26.62
2023-06-29T06:17:35.579Z,26.67
2023-06-29T06:20:06.679Z,26.79
2023-06-29T06:22:34.821Z,26.91
2023-06-29T06:25:03.053Z,26.79
2023-06-29T06:27:32.113Z,26.49
2023-06-29T06:30:01.282Z,26.77
2023-06-29T06:32:32.206Z,27.05
2023-06-29T06:35:00.597Z,27.03
2023-06-29T06:37:28.579Z,27.09
2023-06-29T06:39:56.946Z,27.21
2023-06-29T06:42:27.964Z,27.33
2023-06-29T06:44:57.334Z,27.45
2023-06-29T06:47:25.311Z,27.40
2023-06-29T06:49:54.069Z,27.21
2023-06-29T06:52:22.436Z,26.72
2023-06-29T06:54:50.879Z,26.70
2023-06-29T06:57:20.518Z,26.69
2023-06-29T06:59:48.905Z,26.78
2023-06-29T07:02:17.328Z,26.79
2023-06-29T07:04:46.245Z,26.93
2023-06-29T07:07:14.803Z,26.92
2023-06-29T07:09:43.866Z,26.87
2023-06-29T07:12:12.461Z,26.87
2023-06-29T07:14:40.863Z,26.60
2023-06-29T07:17:08.830Z,26.49
2023-06-29T07:24:40.059Z,26.58
2023-06-29T07:27:08.168Z,26.62
2023-06-29T07:29:36.395Z,26.41
2023-06-29T07:32:04.594Z,26.44
2023-06-29T07:34:33.458Z,26.46
2023-06-29T07:37:01.741Z,26.40
2023-06-29T07:39:30.355Z,26.35
2023-06-29T07:41:58.251Z,26.42
2023-06-29T07:44:29.352Z,26.50
2023-06-29T07:46:57.554Z,26.46
2023-06-29T07:49:25.825Z,26.52
2023-06-29T07:51:53.710Z,26.50
2023-06-29T07:54:22.085Z,26.61
2023-06-29T07:59:21.399Z,26.50
2023-06-29T08:01:50.519Z,26.45
2023-06-29T08:06:45.828Z,26.53
2023-06-29T08:07:10.114Z,26.68
2023-06-29T08:09:41.066Z,26.61
2023-06-29T08:12:09.335Z,26.65
2023-06-29T08:14:39.438Z,26.58
2023-06-29T08:17:07.958Z,26.44
2023-06-29T08:19:36.582Z,26.64
2023-06-29T08:22:05.523Z,26.78
2023-06-29T08:24:34.096Z,26.72
2023-06-29T08:27:02.140Z,26.87
2023-06-29T08:29:30.532Z,26.97
2023-06-29T08:31:58.678Z,27.01
2023-06-29T08:34:27.104Z,26.96
2023-06-29T08:36:55.196Z,27.01
2023-06-29T08:39:42.200Z,26.84
2023-06-29T08:42:10.414Z,26.79
2023-06-29T08:44:39.207Z,26.85
2023-06-29T08:47:08.220Z,26.82
2023-06-29T08:49:37.110Z,26.86
2023-06-29T08:52:06.490Z,26.73
2023-06-29T08:54:36.567Z,26.85
2023-06-29T08:57:06.519Z,26.92
2023-06-29T08:59:35.820Z,26.98
2023-06-29T09:02:06.502Z,27.07
2023-06-29T09:04:36.057Z,26.90
2023-06-29T09:07:07.706Z,26.97
2023-06-29T09:09:36.208Z,26.99
2023-06-29T09:12:07.759Z,27.00
2023-06-29T09:14:39.803Z,27.10
2023-06-29T09:17:14.023Z,27.25
2023-06-29T09:19:52.104Z,27.32
2023-06-29T09:22:21.138Z,27.43
2023-06-29T09:25:01.859Z,27.33
2023-06-29T09:27:35.198Z,27.34
2023-06-29T09:30:05.986Z,27.30
2023-06-29T09:32:39.972Z,27.33
2023-06-29T09:35:10.181Z,27.35
2023-06-29T09:37:38.485Z,27.46
2023-06-29T09:40:19.667Z,27.26
2023-06-29T09:42:47.859Z,27.43
2023-06-29T09:45:16.768Z,27.48
2023-06-29T09:50:25.530Z,27.76
2023-06-29T09:52:55.627Z,27.88
2023-06-29T09:55:31.548Z,27.98
2023-06-29T09:58:00.293Z,27.96
2023-06-29T10:00:29.387Z,27.96
2023-06-29T10:02:57.737Z,27.84
2023-06-29T10:05:26.363Z,27.82
2023-06-29T10:07:54.660Z,27.81
2023-06-29T10:10:24.981Z,27.88
2023-06-29T10:12:56.950Z,27.91
2023-06-29T10:16:10.135Z,28.05
2023-06-29T10:19:29.828Z,28.02
2023-06-29T10:22:06.902Z,28.01
2023-06-29T10:24:48.214Z,28.07
2023-06-29T10:27:21.322Z,28.20
2023-06-29T10:29:53.614Z,28.13
2023-06-29T10:32:37.037Z,28.12
2023-06-29T10:35:07.219Z,28.08
2023-06-29T10:37:42.850Z,28.06
2023-06-29T10:40:20.939Z,28.08
2023-06-29T10:42:56.747Z,28.21
2023-06-29T10:45:24.865Z,28.27
2023-06-29T10:47:59.308Z,28.25
2023-06-29T10:50:31.850Z,28.24
2023-06-29T10:53:01.605Z,28.22
2023-06-29T10:55:40.066Z,28.04
2023-06-29T10:58:15.611Z,27.98
2023-06-29T11:00:44.282Z,27.93
2023-06-29T11:03:13.979Z,27.91
2023-06-29T11:05:42.464Z,27.98
2023-06-29T11:08:10.983Z,27.94
2023-06-29T11:10:39.110Z,27.97
2023-06-29T11:13:11.527Z,27.98
2023-06-29T11:15:40.331Z,28.02
2023-06-29T11:18:10.533Z,28.07
2023-06-29T11:20:40.888Z,28.10
2023-06-29T11:23:09.593Z,28.11
2023-06-29T11:25:40.436Z,28.12
2023-06-29T11:28:09.244Z,28.09
2023-06-29T11:30:41.258Z,28.04
2023-06-29T11:36:02.319Z,28.04
2023-06-29T11:38:31.120Z,28.08
2023-06-29T11:41:06.835Z,28.06
2023-06-29T11:43:35.445Z,28.11
2023-06-29T11:46:04.175Z,28.13
2023-06-29T11:48:32.617Z,28.17
2023-06-29T11:51:01.629Z,28.30
2023-06-29T11:53:30.808Z,28.29
2023-06-29T11:55:59.281Z,28.19
2023-06-29T11:58:35.397Z,28.12
2023-06-29T12:01:04.041Z,28.19
2023-06-29T12:03:32.495Z,28.13
2023-06-29T12:06:02.643Z,28.07
2023-06-29T12:08:41.055Z,28.09
2023-06-29T12:11:22.679Z,28.17
2023-06-29T12:14:02.340Z,28.22
2023-06-29T12:19:11.569Z,28.21
2023-06-29T12:21:40.752Z,28.27
2023-06-29T12:24:09.914Z,28.32
2023-06-29T12:26:38.059Z,28.31
2023-06-29T12:29:06.647Z,28.39
2023-06-29T12:31:35.308Z,28.47
2023-06-29T12:34:03.875Z,28.53
2023-06-29T12:36:31.944Z,28.48
2023-06-29T12:39:00.424Z,28.39
2023-06-29T12:41:29.664Z,28.51
2023-06-29T12:43:58.063Z,28.52
2023-06-29T12:46:28.714Z,28.52
2023-06-29T12:48:57.257Z,28.51
2023-06-29T12:51:25.736Z,28.51
2023-06-29T12:53:54.868Z,28.50
2023-06-29T12:56:23.004Z,28.49
2023-06-29T12:58:51.606Z,28.42
2023-06-29T13:01:19.663Z,28.39
2023-06-29T13:03:48.269Z,28.32
2023-06-29T13:06:16.544Z,28.25
2023-06-29T13:08:44.984Z,28.17
2023-06-29T13:11:13.612Z,28.13
2023-06-29T13:13:42.305Z,28.16
2023-06-29T13:16:10.793Z,28.00
2023-06-29T13:18:39.555Z,28.08
2023-06-29T13:21:07.693Z,28.05
2023-06-29T13:23:37.024Z,27.96
2023-06-29T13:26:05.200Z,27.98
2023-06-29T13:28:34.406Z,28.03
2023-06-29T13:31:02.701Z,28.01
2023-06-29T13:33:31.258Z,27.99
2023-06-29T13:36:01.350Z,28.01
2023-06-29T13:38:29.952Z,27.99
2023-06-29T13:40:58.029Z,27.92
2023-06-29T13:43:26.401Z,27.93
2023-06-29T13:45:55.578Z,27.83
2023-06-29T13:48:24.010Z,27.83
2023-06-29T13:50:53.341Z,27.81
2023-06-29T13:53:25.592Z,27.73
2023-06-29T13:55:53.842Z,27.71
2023-06-29T13:58:29.083Z,27.69
2023-06-29T14:00:57.316Z,27.64
2023-06-29T14:03:25.952Z,27.66
2023-06-29T14:05:53.989Z,27.61
2023-06-29T14:08:23.667Z,27.50
2023-06-29T14:10:53.659Z,27.45
2023-06-29T14:13:21.896Z,27.42
2023-06-29T14:15:49.864Z,27.44
2023-06-29T14:18:18.377Z,27.36
2023-06-29T14:20:46.841Z,27.30
2023-06-29T14:23:15.110Z,27.28
2023-06-29T14:25:43.535Z,27.28
2023-06-29T14:28:12.386Z,27.26
2023-06-29T14:30:40.275Z,27.28
2023-06-29T14:33:19.587Z,27.26
2023-06-29T14:35:52.487Z,27.27
2023-06-29T14:38:20.939Z,27.24
2023-06-29T14:40:50.174Z,27.20
2023-06-29T14:43:19.444Z,27.16
2023-06-29T14:45:47.904Z,27.15
2023-06-29T14:48:17.566Z,27.15
2023-06-29T14:50:46.650Z,27.14
2023-06-29T14:53:16.784Z,27.11
2023-06-29T14:55:46.486Z,27.11
2023-06-29T14:58:16.358Z,27.07
2023-06-29T15:00:44.690Z,27.06
2023-06-29T15:03:13.303Z,27.03
2023-06-29T15:05:41.733Z,27.02
2023-06-29T15:08:09.978Z,26.94
2023-06-29T15:10:37.801Z,26.93
2023-06-29T15:13:06.094Z,26.88
2023-06-29T15:15:34.054Z,26.86
2023-06-29T15:18:05.587Z,26.85
2023-06-29T15:20:33.676Z,26.77
2023-06-29T15:23:04.931Z,26.77
2023-06-29T15:25:33.222Z,26.72
2023-06-29T15:28:02.801Z,26.63
2023-06-29T15:30:47.181Z,26.59
2023-06-29T15:33:20.553Z,26.63
2023-06-29T15:35:52.247Z,26.61
2023-06-29T15:38:21.613Z,26.55
2023-06-29T15:40:51.355Z,26.47
2023-06-29T15:43:19.808Z,26.43
2023-06-29T15:45:48.021Z,26.38
2023-06-29T15:48:16.797Z,26.36
2023-06-29T15:50:45.357Z,26.28
2023-06-29T15:53:14.629Z,26.26
2023-06-29T15:55:42.939Z,26.21
2023-06-29T15:58:11.404Z,26.17
2023-06-29T16:00:40.077Z,26.11
2023-06-29T16:03:08.614Z,26.09
2023-06-29T16:05:36.845Z,26.08
2023-06-29T16:08:05.582Z,26.06
2023-06-29T16:10:34.101Z,26.02
2023-06-29T16:13:02.306Z,25.99
2023-06-29T16:15:30.851Z,25.94
2023-06-29T16:17:59.491Z,25.91
2023-06-29T16:20:28.042Z,25.85
2023-06-29T16:23:00.108Z,25.74
2023-06-29T16:25:28.287Z,25.72
2023-06-29T16:27:56.758Z,25.71
2023-06-29T16:30:25.610Z,25.67
2023-06-29T16:32:54.318Z,25.61
2023-06-29T16:35:22.323Z,25.59
2023-06-29T16:37:50.736Z,25.57
2023-06-29T16:40:19.374Z,25.54
2023-06-29T16:42:48.026Z,25.50
2023-06-29T16:45:16.363Z,25.49
2023-06-29T16:47:44.831Z,25.44
2023-06-29T16:50:12.943Z,25.35
2023-06-29T16:52:41.294Z,25.33
2023-06-29T16:55:09.887Z,25.35
2023-06-29T16:57:38.471Z,25.19
2023-06-29T17:00:08.176Z,25.20
2023-06-29T17:02:36.731Z,25.21
2023-06-29T17:05:05.324Z,25.18
2023-06-29T17:07:33.829Z,25.12
2023-06-29T17:10:02.938Z,25.11
2023-06-29T17:12:34.181Z,25.13
2023-06-29T17:15:02.237Z,25.12
2023-06-29T17:17:34.577Z,25.15
2023-06-29T17:20:04.210Z,25.15
2023-06-29T17:22:34.467Z,25.15
2023-06-29T17:25:04.485Z,25.13
2023-06-29T17:27:34.397Z,25.07
2023-06-29T17:30:02.803Z,25.07
2023-06-29T17:32:35.486Z,25.05
2023-06-29T17:35:03.598Z,25.02
2023-06-29T17:37:32.876Z,25.03
2023-06-29T17:40:00.925Z,25.00
2023-06-29T17:42:30.034Z,24.93
2023-06-29T17:45:06.698Z,24.92
2023-06-29T17:47:36.299Z,24.91
2023-06-29T17:50:07.043Z,24.88
2023-06-29T17:52:36.941Z,24.87
2023-06-29T17:55:06.214Z,24.90
2023-06-29T17:57:35.697Z,24.88
2023-06-29T18:00:06.873Z,24.86
2023-06-29T18:02:37.739Z,24.85
2023-06-29T18:05:07.415Z,24.84
2023-06-29T18:07:36.203Z,24.80
2023-06-29T18:10:09.406Z,24.79
2023-06-29T18:12:39.361Z,24.77
2023-06-29T18:15:08.206Z,24.78
2023-06-29T18:17:39.201Z,24.80
2023-06-29T18:20:08.131Z,24.80
2023-06-29T18:22:37.019Z,24.76
2023-06-29T18:25:05.733Z,24.74
2023-06-29T18:27:35.254Z,24.75
2023-06-29T18:30:03.297Z,24.65
2023-06-29T18:32:34.803Z,24.65
2023-06-29T18:35:05.332Z,24.63
2023-06-29T18:37:34.239Z,24.61
2023-06-29T18:40:02.282Z,24.56
2023-06-29T18:42:32.958Z,24.57
2023-06-29T18:45:02.058Z,24.54
2023-06-29T18:47:33.838Z,24.56
2023-06-29T18:50:05.167Z,24.57
2023-06-29T18:52:34.062Z,24.51
2023-06-29T18:55:02.567Z,24.53
2023-06-29T18:57:34.796Z,24.47
2023-06-29T19:00:02.873Z,24.46
2023-06-29T19:02:39.057Z,24.48
2023-06-29T19:05:07.457Z,24.43
2023-06-29T19:07:59.916Z,24.43
2023-06-29T19:10:30.528Z,24.45
2023-06-29T19:12:59.050Z,24.40
2023-06-29T19:15:29.653Z,24.31
2023-06-29T19:18:00.175Z,24.25
2023-06-29T19:20:28.363Z,24.22
2023-06-29T19:22:57.096Z,24.22
2023-06-29T19:25:25.377Z,23.99
2023-06-29T19:27:54.369Z,23.82
2023-06-29T19:30:23.376Z,23.66
2023-06-29T19:32:51.736Z,23.72
2023-06-29T19:35:20.858Z,23.80
2023-06-29T19:37:52.637Z,23.80
2023-06-29T19:40:21.251Z,23.77
2023-06-29T19:42:51.074Z,23.76
2023-06-29T19:45:20.351Z,23.66
2023-06-29T19:47:49.187Z,23.69
2023-06-29T19:50:18.008Z,23.69
2023-06-29T19:52:47.680Z,23.66
2023-06-29T19:55:15.695Z,23.63
2023-06-29T19:57:44.027Z,23.55
2023-06-29T20:00:13.254Z,23.53
2023-06-29T20:02:54.121Z,23.52
2023-06-29T20:05:24.717Z,23.44
2023-06-29T20:07:53.690Z,23.27
2023-06-29T20:10:22.184Z,23.03
2023-06-29T20:12:50.605Z,22.89
2023-06-29T20:15:18.803Z,22.86
2023-06-29T20:17:47.218Z,22.75
2023-06-29T20:20:18.550Z,22.55
2023-06-29T20:22:48.338Z,22.56
2023-06-29T20:25:16.302Z,22.50
2023-06-29T20:27:45.987Z,22.52
2023-06-29T20:30:14.174Z,22.60
2023-06-29T20:32:42.513Z,22.66
2023-06-29T20:35:10.642Z,22.56
2023-06-29T20:37:39.374Z,22.49
2023-06-29T20:40:08.106Z,22.53
2023-06-29T20:42:39.315Z,22.33
2023-06-29T20:45:12.799Z,22.31
2023-06-29T20:47:42.662Z,22.26
2023-06-29T20:50:11.531Z,22.30
2023-06-29T20:52:40.775Z,22.27
2023-06-29T20:55:10.906Z,22.31
2023-06-29T20:57:39.810Z,22.22
2023-06-29T21:00:11.315Z,22.26
2023-06-29T21:02:41.111Z,22.31
2023-06-29T21:05:10.516Z,22.39
2023-06-29T21:07:39.389Z,22.43
2023-06-29T21:10:08.761Z,22.44
2023-06-29T21:12:38.729Z,22.50
2023-06-29T21:15:08.738Z,22.58
2023-06-29T21:17:38.544Z,22.60
2023-06-29T21:20:09.824Z,22.54
2023-06-29T21:22:41.534Z,22.58
2023-06-29T21:25:11.822Z,22.54
2023-06-29T21:27:42.210Z,22.31
2023-06-29T21:30:13.808Z,22.37
2023-06-29T21:32:43.274Z,22.35
2023-06-29T21:35:12.792Z,22.33
2023-06-29T21:37:42.316Z,22.32
2023-06-29T21:40:12.003Z,22.40
2023-06-29T21:42:40.429Z,22.47
2023-06-29T21:45:08.877Z,22.43
2023-06-29T21:47:37.292Z,22.33
2023-06-29T21:50:05.821Z,22.31
2023-06-29T21:52:34.435Z,22.30
2023-06-29T21:55:02.798Z,22.31
2023-06-29T21:57:33.066Z,22.23
2023-06-29T22:00:00.954Z,22.28
2023-06-29T22:02:32.591Z,22.28
2023-06-29T22:05:00.471Z,22.30
2023-06-29T22:07:29.157Z,22.31
2023-06-29T22:09:57.117Z,22.28
2023-06-29T22:12:26.561Z,22.31
2023-06-29T22:14:55.226Z,22.31
2023-06-29T22:17:24.187Z,22.30
2023-06-29T22:20:18.417Z,22.34
2023-06-29T22:22:47.276Z,22.31
2023-06-29T22:25:15.254Z,22.34
2023-06-29T22:27:43.537Z,22.31
2023-06-29T22:30:11.869Z,22.31
2023-06-29T22:32:41.580Z,22.27
2023-06-29T22:35:10.163Z,22.25
2023-06-29T22:37:39.045Z,22.23
2023-06-29T22:40:07.810Z,22.29
2023-06-29T22:42:36.126Z,22.24
2023-06-29T22:45:04.322Z,22.23
2023-06-29T22:47:33.577Z,22.20
2023-06-29T22:50:02.179Z,22.21
2023-06-29T22:52:32.552Z,22.24
2023-06-29T22:55:00.538Z,22.23
2023-06-29T22:57:28.913Z,22.21
2023-06-29T22:59:57.089Z,22.25
2023-06-29T23:02:25.844Z,22.33
2023-06-29T23:04:54.438Z,22.31
2023-06-29T23:07:23.712Z,22.33
2023-06-29T23:09:53.256Z,22.25
2023-06-29T23:12:22.519Z,22.26
2023-06-29T23:14:52.755Z,22.18
2023-06-29T23:17:23.864Z,22.16
2023-06-29T23:19:52.252Z,22.18
2023-06-29T23:22:25.649Z,22.19
2023-06-29T23:24:54.257Z,22.24
2023-06-29T23:27:22.814Z,22.22
2023-06-29T23:29:54.338Z,22.24
2023-06-29T23:32:22.741Z,22.23
2023-06-29T23:34:51.405Z,22.23
2023-06-29T23:37:19.755Z,22.23
2023-06-29T23:39:47.641Z,22.25
2023-06-29T23:42:15.974Z,22.16
2023-06-29T23:44:44.208Z,22.08
2023-06-29T23:47:14.250Z,22.08
2023-06-29T23:49:43.366Z,22.06
2023-06-29T23:52:11.862Z,22.01
2023-06-29T23:54:40.084Z,21.99
2023-06-29T23:57:08.395Z,22.03
2023-06-29T23:59:36.387Z,21.97
